createdAt,value
2022-09-15T00:00:02.748Z,100434.66
2022-09-15T00:05:06.355Z,100451.06
2022-09-15T00:10:09.680Z,100463.91
2022-09-15T00:15:10.138Z,100474.56
2022-09-15T00:20:14.536Z,100462.34
2022-09-15T00:25:16.813Z,100431.31
2022-09-15T00:30:16.294Z,100436.75
2022-09-15T00:35:16.613Z,100435.53
2022-09-15T00:40:17.306Z,100474.94
2022-09-15T00:45:18.021Z,100471.31
2022-09-15T00:50:21.775Z,100474.06
2022-09-15T00:55:38.195Z,100474.69
2022-09-15T01:00:37.947Z,100435.16
2022-09-15T01:05:47.343Z,100456.69
2022-09-15T01:10:50.010Z,100449.09
2022-09-15T01:15:58.912Z,100455.81
2022-09-15T01:21:04.743Z,100442.56
2022-09-15T01:26:49.361Z,100459.31
2022-09-15T01:32:24.209Z,100441.59
2022-09-15T01:37:34.324Z,100455.28
2022-09-15T01:42:35.967Z,100435.91
2022-09-15T01:47:37.376Z,100421.81
2022-09-15T01:52:36.761Z,100428.09
2022-09-15T01:57:35.756Z,100440.97
2022-09-15T02:02:40.021Z,100432.59
2022-09-15T02:07:47.493Z,100421.97
2022-09-15T02:12:51.208Z,100466.66
2022-09-15T02:17:54.260Z,100465.19
2022-09-15T02:23:01.514Z,100429.75
2022-09-15T02:28:05.771Z,100464.44
2022-09-15T02:33:08.984Z,100421.59
2022-09-15T02:38:10.365Z,100465.16
2022-09-15T02:43:14.237Z,100446.47
2022-09-15T02:48:14.998Z,100415.97
2022-09-15T02:53:14.470Z,100393.69
2022-09-15T02:58:13.217Z,100424.03
2022-09-15T03:03:13.641Z,100417.03
2022-09-15T03:08:17.002Z,100442.72
2022-09-15T03:13:18.551Z,100447.75
2022-09-15T03:18:19.357Z,100457.00
2022-09-15T03:23:21.228Z,100429.84
2022-09-15T03:28:23.020Z,100453.72
2022-09-15T03:33:24.956Z,100432.81
2022-09-15T03:38:26.671Z,100428.34
2022-09-15T03:43:27.218Z,100461.03
2022-09-15T03:48:40.548Z,100415.25
2022-09-15T03:53:40.802Z,100405.84
2022-09-15T03:58:40.602Z,100449.53
2022-09-15T04:03:46.383Z,100436.22
2022-09-15T04:08:53.015Z,100465.69
2022-09-15T04:13:54.193Z,100413.06
2022-09-15T04:18:53.475Z,100461.97
2022-09-15T04:23:51.805Z,100435.41
2022-09-15T04:28:50.302Z,100450.47
2022-09-15T04:33:48.454Z,100443.53
2022-09-15T04:38:47.606Z,100410.03
2022-09-15T04:43:48.851Z,100456.28
2022-09-15T04:48:51.510Z,100432.78
2022-09-15T04:53:50.600Z,100444.66
2022-09-15T04:58:51.355Z,100481.66
2022-09-15T05:03:54.754Z,100469.50
2022-09-15T05:08:58.406Z,100441.22
2022-09-15T05:13:55.674Z,100457.16
2022-09-15T05:18:55.676Z,100427.00
2022-09-15T05:23:58.122Z,100430.09
2022-09-15T05:28:59.486Z,100450.88
2022-09-15T05:33:57.975Z,100454.91
2022-09-15T05:39:02.351Z,100459.03
2022-09-15T05:44:03.529Z,100438.59
2022-09-15T05:49:04.738Z,100464.13
2022-09-15T05:54:03.709Z,100463.41
2022-09-15T05:59:02.414Z,100471.34
2022-09-15T06:04:01.147Z,100428.28
2022-09-15T06:09:00.971Z,100454.81
2022-09-15T06:14:06.159Z,100437.28
2022-09-15T06:19:06.903Z,100432.34
2022-09-15T06:24:07.315Z,100448.00
2022-09-15T06:29:06.524Z,100425.94
2022-09-15T06:34:05.870Z,100445.97
2022-09-15T06:39:04.357Z,100426.16
2022-09-15T06:44:03.707Z,100429.03
2022-09-15T06:49:02.678Z,100418.50
2022-09-15T06:54:03.288Z,100408.94
2022-09-15T06:59:01.373Z,100420.50
2022-09-15T07:04:01.095Z,100391.22
2022-09-15T07:09:01.889Z,100391.25
2022-09-15T07:14:02.439Z,100402.13
2022-09-15T07:19:03.836Z,100403.13
2022-09-15T07:24:07.426Z,100390.22
2022-09-15T07:29:09.921Z,100402.63
2022-09-15T07:34:11.689Z,100395.09
2022-09-15T07:39:10.554Z,100426.75
2022-09-15T07:44:13.321Z,100426.31
2022-09-15T07:49:18.307Z,100401.59
2022-09-15T07:54:21.477Z,100432.75
2022-09-15T07:59:26.929Z,100421.06
2022-09-15T08:04:26.685Z,100427.53
2022-09-15T08:09:28.597Z,100428.38
2022-09-15T08:14:28.059Z,100418.81
2022-09-15T08:19:27.677Z,100435.97
2022-09-15T08:24:26.940Z,100456.25
2022-09-15T08:29:25.184Z,100436.28
2022-09-15T08:34:24.906Z,100430.56
2022-09-15T08:39:23.262Z,100435.81
2022-09-15T08:44:35.552Z,100436.25
2022-09-15T08:49:56.039Z,100430.81
2022-09-15T08:54:59.180Z,100404.75
2022-09-15T09:00:03.308Z,100382.25
2022-09-15T09:05:42.974Z,100421.72
2022-09-15T09:10:52.368Z,100394.06
2022-09-15T09:16:11.694Z,100403.28
2022-09-15T09:21:16.688Z,100389.41
2022-09-15T09:26:18.113Z,100369.44
2022-09-15T09:31:23.768Z,100359.91
2022-09-15T09:36:25.317Z,100350.78
2022-09-15T09:41:37.222Z,100370.19
2022-09-15T09:46:35.259Z,100367.84
2022-09-15T09:51:38.198Z,100388.03
2022-09-15T09:56:47.718Z,100366.31
2022-09-15T10:02:06.637Z,100374.56
2022-09-15T10:07:09.187Z,100369.78
2022-09-15T10:12:10.121Z,100358.38
2022-09-15T10:17:21.943Z,100343.91
2022-09-15T10:22:28.685Z,100372.84
2022-09-15T10:27:33.907Z,100365.53
2022-09-15T10:32:39.600Z,100353.56
2022-09-15T10:38:09.580Z,100338.63
2022-09-15T10:43:22.906Z,100340.44
2022-09-15T10:48:39.557Z,100334.50
2022-09-15T10:53:52.755Z,100341.56
2022-09-15T10:59:07.927Z,100329.47
2022-09-15T11:04:30.527Z,100331.25
2022-09-15T11:09:34.413Z,100325.97
2022-09-15T11:14:53.008Z,100321.66
2022-09-15T11:20:17.900Z,100327.25
2022-09-15T11:25:27.876Z,100280.00
2022-09-15T11:30:32.272Z,100298.25
2022-09-15T11:35:57.155Z,100314.19
2022-09-15T11:40:55.430Z,100310.47
2022-09-15T11:45:57.972Z,100287.88
2022-09-15T11:50:58.711Z,100277.16
2022-09-15T11:56:27.295Z,100309.22
2022-09-15T12:01:31.322Z,100336.84
2022-09-15T12:06:45.592Z,100287.69
2022-09-15T12:11:54.163Z,100304.84
2022-09-15T12:16:55.573Z,100283.78
2022-09-15T12:22:08.701Z,100277.13
2022-09-15T12:27:16.628Z,100274.44
2022-09-15T12:32:26.622Z,100266.31
2022-09-15T12:37:25.724Z,100270.38
2022-09-15T12:42:33.728Z,100293.53
2022-09-15T12:47:41.397Z,100300.16
2022-09-15T12:52:50.116Z,100275.13
2022-09-15T12:58:00.642Z,100271.06
2022-09-15T13:02:59.081Z,100231.72
2022-09-15T13:08:07.409Z,100246.28
2022-09-15T13:13:19.116Z,100278.19
2022-09-15T13:18:19.729Z,100267.66
2022-09-15T13:23:29.326Z,100242.34
2022-09-15T13:28:28.034Z,100265.53
2022-09-15T13:39:46.088Z,100269.94
2022-09-15T13:45:06.779Z,100258.84
2022-09-15T13:50:18.413Z,100260.59
2022-09-15T13:55:24.319Z,100254.34
2022-09-15T14:00:50.898Z,100254.41
2022-09-15T14:05:48.458Z,100234.50
2022-09-15T14:10:52.905Z,100226.16
2022-09-15T14:16:03.904Z,100233.50
2022-09-15T14:21:04.427Z,100247.03
2022-09-15T14:26:17.959Z,100227.56
2022-09-15T14:31:18.601Z,100251.78
2022-09-15T14:36:41.811Z,100246.47
2022-09-15T14:41:40.370Z,100259.19
2022-09-15T14:46:40.854Z,100247.53
2022-09-15T14:51:39.362Z,100242.34
2022-09-15T14:56:41.437Z,100232.53
2022-09-15T15:01:44.717Z,100208.94
2022-09-15T15:07:08.453Z,100234.22
2022-09-15T15:12:14.791Z,100215.97
2022-09-15T15:17:34.248Z,100216.84
2022-09-15T15:22:36.235Z,100219.22
2022-09-15T15:27:42.622Z,100192.66
2022-09-15T15:32:42.954Z,100203.78
2022-09-15T15:37:45.926Z,100246.09
2022-09-15T15:43:00.128Z,100227.81
2022-09-15T15:47:59.616Z,100200.13
2022-09-15T15:53:03.603Z,100220.28
2022-09-15T15:58:01.834Z,100213.47
2022-09-15T16:03:03.880Z,100211.78
2022-09-15T16:08:06.272Z,100223.75
2022-09-15T16:13:05.637Z,100224.16
2022-09-15T16:18:04.335Z,100203.94
2022-09-15T16:23:04.989Z,100209.69
2022-09-15T16:28:04.298Z,100207.63
2022-09-15T16:33:02.847Z,100204.38
2022-09-15T16:38:00.927Z,100200.25
2022-09-15T16:42:58.607Z,100184.69
2022-09-15T16:48:00.497Z,100188.34
2022-09-15T16:53:02.640Z,100191.63
2022-09-15T16:58:04.659Z,100211.88
2022-09-15T17:03:06.737Z,100191.09
2022-09-15T17:08:08.787Z,100213.88
2022-09-15T17:13:08.259Z,100188.16
2022-09-15T17:18:20.256Z,100199.59
2022-09-15T17:23:25.738Z,100211.59
2022-09-15T17:28:33.620Z,100208.16
2022-09-15T17:33:35.967Z,100207.56
2022-09-15T17:38:33.822Z,100205.03
2022-09-15T17:43:32.177Z,100219.00
2022-09-15T17:48:31.641Z,100236.41
2022-09-15T17:53:31.084Z,100209.53
2022-09-15T17:58:31.624Z,100236.38
2022-09-15T18:03:37.225Z,100221.00
2022-09-15T18:08:36.402Z,100242.81
2022-09-15T18:13:34.741Z,100231.31
2022-09-15T18:18:36.635Z,100236.94
2022-09-15T18:23:37.623Z,100211.00
2022-09-15T18:28:38.913Z,100212.19
2022-09-15T18:33:43.970Z,100218.56
2022-09-15T18:38:42.685Z,100244.19
2022-09-15T18:43:41.567Z,100249.66
2022-09-15T18:48:38.992Z,100225.91
2022-09-15T18:53:40.350Z,100231.47
2022-09-15T18:58:41.919Z,100235.56
2022-09-15T19:03:44.927Z,100259.41
2022-09-15T19:08:43.893Z,100213.56
2022-09-15T19:13:42.519Z,100214.66
2022-09-15T19:18:46.319Z,100212.47
2022-09-15T19:23:45.401Z,100185.28
2022-09-15T19:28:54.319Z,100187.09
2022-09-15T19:34:11.227Z,100156.50
2022-09-15T19:39:12.329Z,100187.19
2022-09-15T19:44:13.829Z,100198.41
2022-09-15T19:49:28.080Z,100157.09
2022-09-15T19:54:33.929Z,100163.28
2022-09-15T19:59:37.296Z,100166.69
2022-09-15T20:04:38.298Z,100151.31
2022-09-15T20:09:49.345Z,100135.38
2022-09-15T20:15:01.202Z,100164.00
2022-09-15T20:19:59.698Z,100129.63
2022-09-15T20:25:05.518Z,100145.50
2022-09-15T20:30:25.441Z,100126.50
2022-09-15T20:35:24.372Z,100167.47
2022-09-15T20:40:28.163Z,100159.56
2022-09-15T20:45:37.108Z,100145.16
2022-09-15T20:50:43.797Z,100139.22
2022-09-15T20:55:56.260Z,100131.88
2022-09-15T21:01:13.763Z,100173.31
2022-09-15T21:06:21.223Z,100137.31
2022-09-15T21:11:28.317Z,100158.47
2022-09-15T21:16:31.271Z,100154.38
2022-09-15T21:21:34.567Z,100121.22
2022-09-15T21:26:59.311Z,100132.91
2022-09-15T21:31:58.827Z,100165.69
2022-09-15T21:37:00.929Z,100132.63
2022-09-15T21:42:15.386Z,100122.31
2022-09-15T21:47:17.186Z,100124.59
2022-09-15T21:52:24.615Z,100128.28
2022-09-15T21:57:36.034Z,100117.16
2022-09-15T22:02:37.355Z,100121.53
2022-09-15T22:07:39.566Z,100142.66
2022-09-15T22:12:36.980Z,100111.66
2022-09-15T22:17:37.726Z,100137.16
2022-09-15T22:22:36.549Z,100140.13
2022-09-15T22:27:34.911Z,100127.22
2022-09-15T22:32:32.944Z,100126.31
2022-09-15T22:37:33.253Z,100129.50
2022-09-15T22:42:32.053Z,100177.03
2022-09-15T22:47:32.709Z,100173.28
2022-09-15T22:52:30.139Z,100165.19
2022-09-15T22:57:28.770Z,100134.72
2022-09-15T23:02:32.021Z,100142.41
2022-09-15T23:07:30.033Z,100163.78
2022-09-15T23:12:32.928Z,100146.47
2022-09-15T23:17:37.308Z,100143.09
2022-09-15T23:22:36.221Z,100125.72
2022-09-15T23:27:35.882Z,100101.88
2022-09-15T23:32:34.539Z,100114.63
2022-09-15T23:37:31.988Z,100137.75
2022-09-15T23:42:31.984Z,100120.19
2022-09-15T23:47:31.294Z,100122.88
2022-09-15T23:52:28.588Z,100108.25
2022-09-15T23:57:28.117Z,100094.84
